Naikai Maru No.15 — JD3631 — position and weather

sailwx.info

Track history (hours):
 
Tides and Currents Weather Stations Pressure Air Temp Water Temp Dewpoint Dewpoint Depression Visibility Wind Speed Wind Dir Waves Ship Positions

Naikai Maru No.15

Last reported at 2017-Oct-18 11:01 UTC. Time now 2017-Oct-18 11:13 UTC.
Position N 35°29' E 139°39'.

Length 75 m; draft 4 m.

Type: Cargo ship. MMSI: 431005104.

Date/timePositionNaut miles runAvg speedWind from/ knotsBaromVisibWave heightAir tempDewpointWater temp
2017-Oct-18 11:01N 35°29' E 139°39'0 0.0
2017-Oct-18 10:31N 35°29' E 139°39'0 0.0
2017-Oct-18 10:01N 35°29' E 139°39'0 0.0
2017-Oct-18 09:31N 35°29' E 139°39'0 0.0
2017-Oct-18 09:01N 35°29' E 139°39'0 0.0
2017-Oct-18 08:31N 35°29' E 139°39'0 0.0
2017-Oct-18 08:01N 35°29' E 139°39'0 0.0
2017-Oct-18 07:31N 35°29' E 139°39'0 0.0
2017-Oct-18 07:01N 35°29' E 139°39'0 0.0
2017-Oct-18 06:31N 35°29' E 139°39'0 0.0
2017-Oct-18 06:01N 35°29' E 139°39'0 0.0
2017-Oct-18 05:31N 35°29' E 139°39'0 0.0
2017-Oct-18 05:01N 35°29' E 139°39'0 0.0
2017-Oct-18 04:30N 35°29' E 139°39'0 0.0
2017-Oct-18 04:01N 35°29' E 139°39'0 0.0
2017-Oct-18 03:31N 35°29' E 139°39'0 0.0
2017-Oct-18 03:01N 35°29' E 139°39'0 0.0
2017-Oct-18 02:31N 35°29' E 139°39'0 0.0
2017-Oct-18 02:01N 35°29' E 139°39'0 0.0
2017-Oct-18 01:31N 35°29' E 139°39'0 0.0
2017-Oct-18 01:01N 35°29' E 139°39'0 0.0
2017-Oct-18 00:31N 35°29' E 139°39'0 0.0
2017-Oct-18 00:01N 35°29' E 139°39'3 5.1
2017-Oct-17 23:31N 35°27' E 139°41'1 2.1
2017-Oct-17 23:01N 35°27' E 139°42'0 0.1
2017-Oct-17 22:31N 35°27' E 139°42'0 0.0
2017-Oct-17 22:01N 35°27' E 139°42'0 0.0
2017-Oct-17 21:30N 35°27' E 139°42'0 0.0
2017-Oct-17 21:01N 35°27' E 139°42'0 0.0
2017-Oct-17 20:31N 35°27' E 139°42'0 0.0
2017-Oct-17 20:00N 35°27' E 139°42'0 0.0
2017-Oct-17 19:31N 35°27' E 139°42'0 0.0
2017-Oct-17 19:01N 35°27' E 139°42'0 0.0
2017-Oct-17 18:31N 35°27' E 139°42'0 0.0
2017-Oct-17 18:01N 35°27' E 139°42'0 0.0
2017-Oct-17 17:31N 35°27' E 139°42'0 0.1
2017-Oct-17 17:01N 35°27' E 139°42'0 0.0
2017-Oct-17 16:30N 35°27' E 139°42'0 0.0
2017-Oct-17 16:01N 35°27' E 139°42'0 0.0
2017-Oct-17 15:31N 35°27' E 139°42'0 0.0
2017-Oct-17 15:01N 35°27' E 139°42'0 0.0
2017-Oct-17 14:31N 35°27' E 139°42'0 0.0
2017-Oct-17 14:01N 35°27' E 139°42'0 0.0
2017-Oct-17 13:31N 35°27' E 139°42'0 0.0
2017-Oct-17 13:01N 35°27' E 139°42'0 0.0
2017-Oct-17 12:31N 35°27' E 139°42'0 0.1
2017-Oct-17 12:00N 35°27' E 139°42'0 0.0
2017-Oct-17 11:31N 35°27' E 139°42'0 0.0
2017-Oct-17 11:00N 35°27' E 139°42'0 0.0
2017-Oct-17 10:31N 35°27' E 139°42'0 0.0
2017-Oct-17 10:01N 35°27' E 139°42'0 0.0
2017-Oct-17 09:30N 35°27' E 139°42'0 0.0
2017-Oct-17 09:00N 35°27' E 139°42'0 0.0
2017-Oct-17 08:31N 35°27' E 139°42'0 0.0
2017-Oct-17 08:00N 35°27' E 139°42'0 0.0
2017-Oct-17 07:31N 35°27' E 139°42'2 4.3
2017-Oct-17 07:01N 35°29' E 139°43'2 3.7
2017-Oct-17 06:30N 35°31' E 139°44'0 0.0
2017-Oct-16 05:56N 35°31' E 139°44'1 1.4
2017-Oct-16 05:30N 35°30' E 139°44'3 6.2
2017-Oct-16 05:00N 35°27' E 139°43'0 0.1
2017-Oct-16 04:30N 35°27' E 139°42'0 0.0
2017-Oct-16 04:00N 35°27' E 139°42'0 0.0
2017-Oct-16 03:30N 35°27' E 139°42'0 0.0
2017-Oct-16 03:00N 35°27' E 139°42'0 0.0
2017-Oct-16 02:30N 35°27' E 139°42'0 0.0
2017-Oct-16 02:00N 35°27' E 139°42'0 0.0
2017-Oct-16 01:30N 35°27' E 139°42'0 0.0
2017-Oct-16 01:00N 35°27' E 139°42'0 0.0
2017-Oct-16 00:30N 35°27' E 139°42'0 0.0
2017-Oct-16 00:00N 35°27' E 139°42'0 0.1
2017-Oct-15 23:30N 35°27' E 139°42'0 0.1
2017-Oct-15 23:00N 35°27' E 139°42'0 0.1
2017-Oct-15 22:30N 35°27' E 139°42'0 0.0
2017-Oct-15 22:00N 35°27' E 139°42'0 0.1
2017-Oct-15 21:30N 35°27' E 139°42'0 0.0
2017-Oct-15 21:00N 35°27' E 139°42'0 0.0
2017-Oct-15 20:30N 35°27' E 139°42'0 0.0
2017-Oct-15 20:00N 35°27' E 139°42'0 0.1
2017-Oct-15 19:30N 35°27' E 139°42'0 0.0
2017-Oct-15 19:00N 35°27' E 139°42'0 0.1
2017-Oct-15 18:30N 35°27' E 139°42'0 0.1
2017-Oct-15 18:00N 35°27' E 139°42'0 0.0
2017-Oct-15 17:30N 35°27' E 139°42'0 0.0
2017-Oct-15 17:00N 35°27' E 139°42'0 0.0
2017-Oct-15 16:30N 35°27' E 139°42'0 0.0
2017-Oct-15 16:00N 35°27' E 139°42'0 0.0
2017-Oct-15 15:30N 35°27' E 139°42'0 0.1
2017-Oct-15 15:00N 35°27' E 139°42'0 0.0
2017-Oct-15 14:00N 35°27' E 139°42'0 0.0
2017-Oct-15 13:30N 35°27' E 139°42'0 0.0
2017-Oct-15 13:00N 35°27' E 139°42'0 0.0
2017-Oct-15 12:30N 35°27' E 139°42'0 0.1
2017-Oct-15 12:00N 35°27' E 139°42'3 5.9
2017-Oct-15 11:31N 35°24' E 139°43'510.9
2017-Oct-15 11:00N 35°19' E 139°44'510.8
2017-Oct-15 10:30N 35°14' E 139°47'510.5
2017-Oct-15 10:00N 35°09' E 139°46'510.7
2017-Oct-15 09:30N 35°05' E 139°41'511.0
2017-Oct-15 09:00N 35°01' E 139°36'611.4
2017-Oct-15 08:29N 34°57' E 139°31'  
2017-Oct-12 12:24N 34°51' E 139°09'2210.3
2017-Oct-12 10:16N 35°02' E 139°32'310.7
2017-Oct-12 10:00N 35°04' E 139°35'611.2
2017-Oct-12 09:30N 35°06' E 139°41'611.0
2017-Oct-12 09:00N 35°11' E 139°45'510.5
2017-Oct-12 08:30N 35°16' E 139°46'611.7
2017-Oct-12 08:00N 35°21' E 139°42'510.8
2017-Oct-12 07:30N 35°26' E 139°46'611.7
2017-Oct-12 07:00N 35°29' E 139°51'611.9
2017-Oct-12 06:30N 35°32' E 139°58'  
2017-Oct-09 11:40N 35°25' E 139°47'211.4
2017-Oct-09 11:29N 35°23' E 139°46'510.9
2017-Oct-09 11:00N 35°18' E 139°45'510.7
2017-Oct-09 10:30N 35°13' E 139°47'612.0
2017-Oct-09 10:00N 35°07' E 139°45'612.5
2017-Oct-09 09:30N 35°03' E 139°39'  
Track history (hours):
 
Tides and Currents Weather Stations Pressure Air Temp Water Temp Dewpoint Dewpoint Depression Visibility Wind Speed Wind Dir Waves Ship Positions

Naikai Maru No.15

Last reported at 2017-Oct-18 11:01 UTC. Time now 2017-Oct-18 11:13 UTC.
Position N 35°29' E 139°39'.

Length 75 m; draft 4 m.

Type: Cargo ship. MMSI: 431005104.

Date/timePositionNaut miles runAvg speedWind from/ knotsBaromVisibWave heightAir tempDewpointWater temp
2017-Oct-18 11:01N 35°29' E 139°39'0 0.0
2017-Oct-18 10:31N 35°29' E 139°39'0 0.0
2017-Oct-18 10:01N 35°29' E 139°39'0 0.0
2017-Oct-18 09:31N 35°29' E 139°39'0 0.0
2017-Oct-18 09:01N 35°29' E 139°39'0 0.0
2017-Oct-18 08:31N 35°29' E 139°39'0 0.0
2017-Oct-18 08:01N 35°29' E 139°39'0 0.0
2017-Oct-18 07:31N 35°29' E 139°39'0 0.0
2017-Oct-18 07:01N 35°29' E 139°39'0 0.0
2017-Oct-18 06:31N 35°29' E 139°39'0 0.0
2017-Oct-18 06:01N 35°29' E 139°39'0 0.0
2017-Oct-18 05:31N 35°29' E 139°39'0 0.0
2017-Oct-18 05:01N 35°29' E 139°39'0 0.0
2017-Oct-18 04:30N 35°29' E 139°39'0 0.0
2017-Oct-18 04:01N 35°29' E 139°39'0 0.0
2017-Oct-18 03:31N 35°29' E 139°39'0 0.0
2017-Oct-18 03:01N 35°29' E 139°39'0 0.0
2017-Oct-18 02:31N 35°29' E 139°39'0 0.0
2017-Oct-18 02:01N 35°29' E 139°39'0 0.0
2017-Oct-18 01:31N 35°29' E 139°39'0 0.0
2017-Oct-18 01:01N 35°29' E 139°39'0 0.0
2017-Oct-18 00:31N 35°29' E 139°39'0 0.0
2017-Oct-18 00:01N 35°29' E 139°39'3 5.1
2017-Oct-17 23:31N 35°27' E 139°41'1 2.1
2017-Oct-17 23:01N 35°27' E 139°42'0 0.1
2017-Oct-17 22:31N 35°27' E 139°42'0 0.0
2017-Oct-17 22:01N 35°27' E 139°42'0 0.0
2017-Oct-17 21:30N 35°27' E 139°42'0 0.0
2017-Oct-17 21:01N 35°27' E 139°42'0 0.0
2017-Oct-17 20:31N 35°27' E 139°42'0 0.0
2017-Oct-17 20:00N 35°27' E 139°42'0 0.0
2017-Oct-17 19:31N 35°27' E 139°42'0 0.0
2017-Oct-17 19:01N 35°27' E 139°42'0 0.0
2017-Oct-17 18:31N 35°27' E 139°42'0 0.0
2017-Oct-17 18:01N 35°27' E 139°42'0 0.0
2017-Oct-17 17:31N 35°27' E 139°42'0 0.1
2017-Oct-17 17:01N 35°27' E 139°42'0 0.0
2017-Oct-17 16:30N 35°27' E 139°42'0 0.0
2017-Oct-17 16:01N 35°27' E 139°42'0 0.0
2017-Oct-17 15:31N 35°27' E 139°42'0 0.0
2017-Oct-17 15:01N 35°27' E 139°42'0 0.0
2017-Oct-17 14:31N 35°27' E 139°42'0 0.0
2017-Oct-17 14:01N 35°27' E 139°42'0 0.0
2017-Oct-17 13:31N 35°27' E 139°42'0 0.0
2017-Oct-17 13:01N 35°27' E 139°42'0 0.0
2017-Oct-17 12:31N 35°27' E 139°42'0 0.1
2017-Oct-17 12:00N 35°27' E 139°42'0 0.0
2017-Oct-17 11:31N 35°27' E 139°42'0 0.0
2017-Oct-17 11:00N 35°27' E 139°42'0 0.0
2017-Oct-17 10:31N 35°27' E 139°42'0 0.0
2017-Oct-17 10:01N 35°27' E 139°42'0 0.0
2017-Oct-17 09:30N 35°27' E 139°42'0 0.0
2017-Oct-17 09:00N 35°27' E 139°42'0 0.0
2017-Oct-17 08:31N 35°27' E 139°42'0 0.0
2017-Oct-17 08:00N 35°27' E 139°42'0 0.0
2017-Oct-17 07:31N 35°27' E 139°42'2 4.3
2017-Oct-17 07:01N 35°29' E 139°43'2 3.7
2017-Oct-17 06:30N 35°31' E 139°44'0 0.0
2017-Oct-16 05:56N 35°31' E 139°44'1 1.4
2017-Oct-16 05:30N 35°30' E 139°44'3 6.2
2017-Oct-16 05:00N 35°27' E 139°43'0 0.1
2017-Oct-16 04:30N 35°27' E 139°42'0 0.0
2017-Oct-16 04:00N 35°27' E 139°42'0 0.0
2017-Oct-16 03:30N 35°27' E 139°42'0 0.0
2017-Oct-16 03:00N 35°27' E 139°42'0 0.0
2017-Oct-16 02:30N 35°27' E 139°42'0 0.0
2017-Oct-16 02:00N 35°27' E 139°42'0 0.0
2017-Oct-16 01:30N 35°27' E 139°42'0 0.0
2017-Oct-16 01:00N 35°27' E 139°42'0 0.0
2017-Oct-16 00:30N 35°27' E 139°42'0 0.0
2017-Oct-16 00:00N 35°27' E 139°42'0 0.1
2017-Oct-15 23:30N 35°27' E 139°42'0 0.1
2017-Oct-15 23:00N 35°27' E 139°42'0 0.1
2017-Oct-15 22:30N 35°27' E 139°42'0 0.0
2017-Oct-15 22:00N 35°27' E 139°42'0 0.1
2017-Oct-15 21:30N 35°27' E 139°42'0 0.0
2017-Oct-15 21:00N 35°27' E 139°42'0 0.0
2017-Oct-15 20:30N 35°27' E 139°42'0 0.0
2017-Oct-15 20:00N 35°27' E 139°42'0 0.1
2017-Oct-15 19:30N 35°27' E 139°42'0 0.0
2017-Oct-15 19:00N 35°27' E 139°42'0 0.1
2017-Oct-15 18:30N 35°27' E 139°42'0 0.1
2017-Oct-15 18:00N 35°27' E 139°42'0 0.0
2017-Oct-15 17:30N 35°27' E 139°42'0 0.0
2017-Oct-15 17:00N 35°27' E 139°42'0 0.0
2017-Oct-15 16:30N 35°27' E 139°42'0 0.0
2017-Oct-15 16:00N 35°27' E 139°42'0 0.0
2017-Oct-15 15:30N 35°27' E 139°42'0 0.1
2017-Oct-15 15:00N 35°27' E 139°42'0 0.0
2017-Oct-15 14:00N 35°27' E 139°42'0 0.0
2017-Oct-15 13:30N 35°27' E 139°42'0 0.0
2017-Oct-15 13:00N 35°27' E 139°42'0 0.0
2017-Oct-15 12:30N 35°27' E 139°42'0 0.1
2017-Oct-15 12:00N 35°27' E 139°42'3 5.9
2017-Oct-15 11:31N 35°24' E 139°43'510.9
2017-Oct-15 11:00N 35°19' E 139°44'510.8
2017-Oct-15 10:30N 35°14' E 139°47'510.5
2017-Oct-15 10:00N 35°09' E 139°46'510.7
2017-Oct-15 09:30N 35°05' E 139°41'511.0
2017-Oct-15 09:00N 35°01' E 139°36'611.4
2017-Oct-15 08:29N 34°57' E 139°31'  
2017-Oct-12 12:24N 34°51' E 139°09'2210.3
2017-Oct-12 10:16N 35°02' E 139°32'310.7
2017-Oct-12 10:00N 35°04' E 139°35'611.2
2017-Oct-12 09:30N 35°06' E 139°41'611.0
2017-Oct-12 09:00N 35°11' E 139°45'510.5
2017-Oct-12 08:30N 35°16' E 139°46'611.7
2017-Oct-12 08:00N 35°21' E 139°42'510.8
2017-Oct-12 07:30N 35°26' E 139°46'611.7
2017-Oct-12 07:00N 35°29' E 139°51'611.9
2017-Oct-12 06:30N 35°32' E 139°58'  
2017-Oct-09 11:40N 35°25' E 139°47'211.4
2017-Oct-09 11:29N 35°23' E 139°46'510.9
2017-Oct-09 11:00N 35°18' E 139°45'510.7
2017-Oct-09 10:30N 35°13' E 139°47'612.0
2017-Oct-09 10:00N 35°07' E 139°45'612.5
2017-Oct-09 09:30N 35°03' E 139°39'  

Dump ship's entire track history